createdAt,value
2023-02-19T00:01:36.394Z,4.17
2023-02-19T00:04:10.162Z,3.93
2023-02-19T00:06:36.957Z,3.62
2023-02-19T00:09:04.410Z,4.12
2023-02-19T00:11:34.126Z,4.20
2023-02-19T00:14:02.441Z,4.31
2023-02-19T00:16:32.384Z,4.10
2023-02-19T00:19:00.472Z,4.19
2023-02-19T00:21:28.336Z,3.77
2023-02-19T00:24:00.933Z,4.18
2023-02-19T00:26:28.421Z,4.21
2023-02-19T00:28:56.541Z,4.02
2023-02-19T00:31:33.007Z,4.23
2023-02-19T00:34:02.443Z,3.93
2023-02-19T00:36:29.489Z,3.93
2023-02-19T00:38:56.271Z,3.84
2023-02-19T00:41:24.216Z,4.06
2023-02-19T00:44:07.246Z,4.18
2023-02-19T00:46:36.802Z,4.16
2023-02-19T00:49:05.210Z,4.21
2023-02-19T00:51:35.301Z,4.19
2023-02-19T00:54:02.905Z,4.11
2023-02-19T00:56:29.696Z,4.10
2023-02-19T00:58:57.130Z,4.09
2023-02-19T01:01:23.903Z,3.77
2023-02-19T01:03:51.072Z,3.72
2023-02-19T01:06:20.039Z,4.09
2023-02-19T01:08:47.447Z,3.69
2023-02-19T01:11:14.906Z,3.67
2023-02-19T01:13:42.382Z,3.50
2023-02-19T01:16:11.435Z,3.86
2023-02-19T01:18:38.878Z,3.49
2023-02-19T01:21:07.981Z,3.70
2023-02-19T01:23:35.744Z,3.61
2023-02-19T01:26:07.367Z,3.55
2023-02-19T01:28:35.245Z,3.29
2023-02-19T01:31:04.116Z,3.67
2023-02-19T01:33:31.249Z,3.47
2023-02-19T01:35:58.334Z,3.28
2023-02-19T01:38:25.181Z,3.27
2023-02-19T01:41:00.691Z,3.50
2023-02-19T01:43:27.673Z,3.27
2023-02-19T01:45:54.463Z,3.22
2023-02-19T01:48:41.145Z,3.27
2023-02-19T01:51:17.845Z,3.12
2023-02-19T01:53:52.319Z,3.34
2023-02-19T01:56:21.286Z,2.99
2023-02-19T01:58:48.306Z,2.82
2023-02-19T02:01:15.260Z,2.88
2023-02-19T02:03:47.129Z,2.75
2023-02-19T02:06:24.256Z,3.13
2023-02-19T02:09:15.340Z,2.96
2023-02-19T02:11:51.213Z,2.95
2023-02-19T02:14:20.392Z,3.20
2023-02-19T02:17:24.918Z,3.20
2023-02-19T02:20:39.954Z,3.28
2023-02-19T02:23:21.702Z,3.18
2023-02-19T02:26:10.621Z,3.15
2023-02-19T02:28:37.309Z,3.07
2023-02-19T02:31:13.850Z,2.74
2023-02-19T02:34:07.226Z,3.12
2023-02-19T02:36:41.700Z,2.65
2023-02-19T02:39:13.020Z,3.00
2023-02-19T02:42:11.020Z,2.58
2023-02-19T02:44:38.161Z,2.50
2023-02-19T02:47:07.223Z,2.79
2023-02-19T02:49:54.781Z,2.79
2023-02-19T02:52:40.971Z,2.61
2023-02-19T02:55:11.053Z,2.56
2023-02-19T02:57:37.990Z,2.55
2023-02-19T03:00:04.980Z,2.56
2023-02-19T03:02:31.841Z,2.58
2023-02-19T03:05:41.421Z,2.65
2023-02-19T03:08:15.946Z,2.87
2023-02-19T03:10:48.673Z,2.54
2023-02-19T03:13:47.634Z,2.87
2023-02-19T03:16:47.382Z,2.61
2023-02-19T03:19:20.179Z,2.82
2023-02-19T03:21:55.857Z,2.68
2023-02-19T03:24:48.252Z,2.39
2023-02-19T03:27:17.015Z,2.52
2023-02-19T03:29:47.227Z,2.62
2023-02-19T03:32:22.217Z,2.52
2023-02-19T03:34:54.294Z,2.19
2023-02-19T03:37:41.756Z,2.24
2023-02-19T03:40:09.096Z,2.19
2023-02-19T03:42:41.637Z,2.51
2023-02-19T03:45:17.281Z,2.55
2023-02-19T03:48:14.201Z,2.34
2023-02-19T03:50:56.134Z,2.22
2023-02-19T03:53:51.113Z,2.35
2023-02-19T03:56:39.305Z,2.38
2023-02-19T03:59:23.163Z,1.86
2023-02-19T04:01:59.287Z,2.09
2023-02-19T04:04:32.819Z,1.57
2023-02-19T04:06:59.664Z,1.73
2023-02-19T04:09:33.882Z,1.76
2023-02-19T04:12:01.569Z,1.59
2023-02-19T04:14:43.215Z,2.08
2023-02-19T04:17:19.287Z,1.97
2023-02-19T04:19:49.997Z,1.58
2023-02-19T04:22:17.759Z,2.00
2023-02-19T04:24:55.559Z,1.76
2023-02-19T04:27:22.428Z,1.93
2023-02-19T04:29:49.200Z,2.17
2023-02-19T04:32:15.902Z,1.92
2023-02-19T04:34:42.649Z,1.65
2023-02-19T04:37:09.430Z,1.76
2023-02-19T04:39:36.591Z,2.21
2023-02-19T04:42:03.767Z,1.42
2023-02-19T04:44:30.551Z,1.83
2023-02-19T04:46:57.271Z,2.00
2023-02-19T04:49:23.959Z,2.00
2023-02-19T04:51:50.693Z,2.29
2023-02-19T04:54:17.397Z,2.33
2023-02-19T04:56:44.186Z,2.62
2023-02-19T04:59:11.002Z,2.37
2023-02-19T05:01:37.780Z,2.38
2023-02-19T05:04:05.434Z,2.55
2023-02-19T05:06:32.257Z,2.61
2023-02-19T05:08:59.034Z,2.68
2023-02-19T05:11:25.737Z,2.31
2023-02-19T05:13:52.571Z,2.39
2023-02-19T05:16:19.267Z,2.65
2023-02-19T05:18:47.304Z,2.62
2023-02-19T05:21:14.615Z,2.37
2023-02-19T05:23:41.981Z,2.33
2023-02-19T05:26:23.790Z,2.55
2023-02-19T05:28:52.844Z,2.37
2023-02-19T05:31:20.693Z,2.59
2023-02-19T05:33:51.295Z,2.48
2023-02-19T05:36:20.359Z,2.34
2023-02-19T05:38:48.057Z,2.23
2023-02-19T05:41:20.935Z,2.13
2023-02-19T05:43:49.000Z,2.00
2023-02-19T05:46:18.140Z,2.13
2023-02-19T05:48:44.886Z,2.07
2023-02-19T05:51:14.134Z,2.09
2023-02-19T05:53:42.528Z,2.22
2023-02-19T05:56:26.493Z,2.63
2023-02-19T05:58:54.157Z,2.70
2023-02-19T06:01:23.568Z,2.85
2023-02-19T06:03:50.370Z,2.77
2023-02-19T06:06:19.104Z,2.51
2023-02-19T06:08:45.981Z,2.88
2023-02-19T06:11:12.958Z,2.77
2023-02-19T06:13:39.820Z,2.58
2023-02-19T06:16:07.878Z,2.79
2023-02-19T06:18:35.267Z,2.90
2023-02-19T06:21:06.435Z,2.70
2023-02-19T06:23:33.314Z,2.87
2023-02-19T06:26:26.556Z,3.03
2023-02-19T06:28:54.085Z,2.89
2023-02-19T06:31:23.919Z,2.70
2023-02-19T06:33:51.002Z,2.58
2023-02-19T06:36:19.925Z,2.95
2023-02-19T06:38:46.685Z,2.94
2023-02-19T06:41:14.224Z,2.60
2023-02-19T06:43:41.914Z,2.52
2023-02-19T06:46:09.091Z,2.48
2023-02-19T06:48:36.071Z,2.57
2023-02-19T06:51:03.326Z,2.78
2023-02-19T06:53:30.392Z,2.52
2023-02-19T06:55:58.077Z,2.78
2023-02-19T06:58:24.921Z,2.53
2023-02-19T07:00:52.170Z,2.41
2023-02-19T07:03:19.140Z,2.27
2023-02-19T07:05:45.853Z,2.38
2023-02-19T07:08:12.622Z,2.69
2023-02-19T07:10:39.430Z,2.40
2023-02-19T07:13:06.187Z,2.23
2023-02-19T07:15:32.865Z,2.37
2023-02-19T07:18:00.049Z,2.80
2023-02-19T07:20:26.896Z,2.30
2023-02-19T07:22:53.763Z,2.36
2023-02-19T07:25:20.660Z,2.31
2023-02-19T07:27:47.380Z,2.27
2023-02-19T07:30:14.457Z,2.36
2023-02-19T07:32:42.472Z,2.51
2023-02-19T07:35:09.289Z,2.52
2023-02-19T07:37:36.008Z,2.25
2023-02-19T07:40:02.967Z,2.26
2023-02-19T07:42:29.906Z,2.56
2023-02-19T07:44:57.918Z,2.94
2023-02-19T07:47:25.722Z,2.80
2023-02-19T07:49:52.369Z,2.82
2023-02-19T07:52:19.138Z,3.00
2023-02-19T07:54:45.883Z,2.64
2023-02-19T07:57:12.569Z,2.99
2023-02-19T07:59:39.273Z,2.70
2023-02-19T08:02:34.312Z,3.01
2023-02-19T08:05:01.185Z,3.15
2023-02-19T08:07:35.273Z,3.05
2023-02-19T08:10:21.966Z,3.14
2023-02-19T08:13:17.812Z,3.33
2023-02-19T08:15:44.723Z,3.03
2023-02-19T08:18:11.989Z,2.92
2023-02-19T08:20:39.067Z,3.28
2023-02-19T08:23:06.009Z,3.29
2023-02-19T08:25:33.374Z,3.23
2023-02-19T08:28:00.506Z,3.20
2023-02-19T08:30:31.492Z,3.59
2023-02-19T08:33:02.088Z,3.67
2023-02-19T08:35:29.261Z,3.70
2023-02-19T08:37:59.989Z,3.72
2023-02-19T08:40:27.229Z,3.50
2023-02-19T08:42:54.160Z,3.44
2023-02-19T08:45:21.274Z,3.41
2023-02-19T08:47:47.956Z,3.63
2023-02-19T08:50:14.657Z,3.55
2023-02-19T08:52:41.489Z,3.64
2023-02-19T08:55:08.462Z,3.76
2023-02-19T08:57:38.303Z,4.12
2023-02-19T09:00:07.081Z,4.10
2023-02-19T09:02:33.852Z,4.19
2023-02-19T09:05:00.826Z,3.91
2023-02-19T09:07:28.097Z,4.06
2023-02-19T09:09:55.032Z,4.17
2023-02-19T09:12:21.737Z,4.29
2023-02-19T09:14:48.532Z,4.22
2023-02-19T09:17:15.208Z,4.26
2023-02-19T09:19:42.118Z,4.08
2023-02-19T09:22:09.102Z,4.25
2023-02-19T09:24:35.844Z,4.37
2023-02-19T09:27:02.530Z,4.41
2023-02-19T09:29:29.805Z,4.53
2023-02-19T09:32:00.886Z,4.33
2023-02-19T09:34:29.122Z,4.77
2023-02-19T09:36:55.910Z,4.28
2023-02-19T09:39:22.744Z,4.51
2023-02-19T09:42:03.035Z,4.69
2023-02-19T09:44:34.228Z,4.82
2023-02-19T09:47:03.186Z,4.76
2023-02-19T09:49:36.167Z,4.68
2023-02-19T09:52:18.924Z,4.85
2023-02-19T09:54:47.036Z,4.59
2023-02-19T09:57:21.432Z,4.55
2023-02-19T09:59:53.655Z,4.98
2023-02-19T10:02:23.167Z,5.07
2023-02-19T10:04:52.283Z,4.64
2023-02-19T10:07:25.191Z,4.69
2023-02-19T10:09:57.835Z,5.18
2023-02-19T10:12:30.703Z,4.90
2023-02-19T10:15:11.621Z,4.95
2023-02-19T10:17:38.394Z,5.23
2023-02-19T10:20:05.467Z,4.99
2023-02-19T10:22:34.188Z,5.27
2023-02-19T10:25:00.993Z,5.19
2023-02-19T10:27:33.345Z,5.42
2023-02-19T10:30:01.216Z,5.04
2023-02-19T10:32:29.634Z,5.16
2023-02-19T10:35:16.883Z,5.57
2023-02-19T10:37:46.540Z,5.59
2023-02-19T10:40:19.080Z,5.61
2023-02-19T10:42:48.142Z,5.54
2023-02-19T10:45:30.876Z,5.59
2023-02-19T10:47:57.781Z,5.74
2023-02-19T10:50:29.926Z,5.83
2023-02-19T10:52:59.078Z,5.44
2023-02-19T10:55:28.592Z,5.87
2023-02-19T10:57:56.752Z,5.57
2023-02-19T11:00:27.547Z,5.74
2023-02-19T11:03:24.158Z,5.96
2023-02-19T11:05:57.912Z,5.87
2023-02-19T11:08:24.872Z,5.92
2023-02-19T11:10:51.782Z,5.75
2023-02-19T11:13:31.063Z,5.98
2023-02-19T11:15:59.259Z,6.28
2023-02-19T11:18:29.257Z,5.94
2023-02-19T11:21:04.083Z,6.43
2023-02-19T11:23:35.009Z,6.37
2023-02-19T11:26:16.117Z,6.51
2023-02-19T11:28:43.810Z,6.21
2023-02-19T11:31:19.869Z,6.57
2023-02-19T11:34:00.182Z,6.54
2023-02-19T11:36:34.230Z,6.51
2023-02-19T11:39:12.941Z,6.08
2023-02-19T11:41:57.874Z,6.52
2023-02-19T11:44:39.959Z,6.56
2023-02-19T11:47:12.539Z,6.65
2023-02-19T11:50:17.739Z,6.68
2023-02-19T11:53:05.262Z,6.38
2023-02-19T11:55:50.997Z,6.58
2023-02-19T12:02:02.339Z,6.84
2023-02-19T12:04:38.082Z,6.82
2023-02-19T12:07:21.597Z,6.86
2023-02-19T12:09:58.178Z,7.00
2023-02-19T12:12:43.581Z,7.00
2023-02-19T12:15:22.263Z,6.84
2023-02-19T12:18:16.854Z,7.08
2023-02-19T12:21:17.685Z,6.90
2023-02-19T12:24:20.741Z,6.95
2023-02-19T12:27:19.389Z,7.23
2023-02-19T12:33:22.867Z,7.32
2023-02-19T12:36:19.140Z,7.35
2023-02-19T12:38:58.454Z,7.11
2023-02-19T12:41:40.233Z,7.59
2023-02-19T12:44:24.181Z,7.41
2023-02-19T12:47:04.016Z,7.54
2023-02-19T12:49:37.021Z,7.20
2023-02-19T12:55:28.952Z,7.76
2023-02-19T12:57:57.007Z,7.44
2023-02-19T13:00:43.564Z,7.74
2023-02-19T13:03:30.900Z,7.59
2023-02-19T13:06:17.742Z,7.62
2023-02-19T13:09:05.287Z,7.66
2023-02-19T13:11:42.956Z,7.60
2023-02-19T13:14:09.646Z,8.01
2023-02-19T13:16:42.453Z,8.10
2023-02-19T13:19:11.770Z,8.07
2023-02-19T13:21:57.414Z,7.70
2023-02-19T13:24:29.900Z,8.26
2023-02-19T13:27:08.692Z,8.40
2023-02-19T13:29:38.370Z,8.36
2023-02-19T13:32:32.752Z,8.40
2023-02-19T13:35:30.520Z,8.30
2023-02-19T13:38:02.227Z,8.18
2023-02-19T13:40:32.227Z,8.15
2023-02-19T13:43:14.020Z,8.22
2023-02-19T13:45:44.228Z,8.09
2023-02-19T13:48:34.402Z,8.25
2023-02-19T13:51:13.722Z,8.30
2023-02-19T13:53:44.712Z,8.39
2023-02-19T13:56:30.249Z,8.47
2023-02-19T13:59:17.104Z,8.39
2023-02-19T14:01:50.375Z,8.48
2023-02-19T14:04:32.273Z,8.49
2023-02-19T14:07:04.138Z,8.55
2023-02-19T14:09:37.218Z,8.46
2023-02-19T14:12:15.467Z,8.64
2023-02-19T14:14:53.728Z,8.62
2023-02-19T14:17:33.386Z,9.02
2023-02-19T14:20:04.305Z,8.72
2023-02-19T14:22:51.516Z,9.17
2023-02-19T14:25:27.365Z,9.23
2023-02-19T14:28:18.372Z,9.25
2023-02-19T14:31:02.941Z,9.35
2023-02-19T14:33:33.254Z,9.34
2023-02-19T14:36:06.195Z,9.14
2023-02-19T14:38:39.348Z,9.28
2023-02-19T14:41:06.796Z,9.63
2023-02-19T14:43:35.411Z,9.29
2023-02-19T14:46:15.193Z,9.47
2023-02-19T14:48:46.634Z,9.67
2023-02-19T14:51:30.615Z,9.77
2023-02-19T14:53:59.209Z,9.31
2023-02-19T14:56:34.973Z,9.58
2023-02-19T14:59:09.282Z,9.82
2023-02-19T15:01:36.239Z,9.45
2023-02-19T15:04:03.224Z,9.60
2023-02-19T15:06:31.868Z,9.63
2023-02-19T15:09:01.959Z,9.68
2023-02-19T15:11:32.428Z,9.52
2023-02-19T15:14:03.056Z,9.86
2023-02-19T15:16:32.576Z,9.81
2023-02-19T15:19:00.311Z,9.86
2023-02-19T15:21:33.453Z,9.95
2023-02-19T15:24:03.299Z,9.85
2023-02-19T15:26:40.611Z,9.72
2023-02-19T15:29:15.871Z,9.93
2023-02-19T15:31:54.272Z,9.91
2023-02-19T15:34:24.898Z,10.00
2023-02-19T15:36:58.691Z,10.17
2023-02-19T15:39:33.779Z,9.97
2023-02-19T15:42:04.003Z,10.16
2023-02-19T15:44:49.444Z,10.24
2023-02-19T15:47:21.790Z,9.86
2023-02-19T15:50:02.487Z,10.07
2023-02-19T15:52:41.174Z,9.94
2023-02-19T15:55:36.020Z,10.05
2023-02-19T15:58:21.494Z,9.85
2023-02-19T16:00:53.952Z,10.04
2023-02-19T16:03:23.656Z,10.25
2023-02-19T16:06:05.308Z,9.86
2023-02-19T16:08:36.815Z,10.04
2023-02-19T16:11:06.973Z,9.84
2023-02-19T16:13:34.948Z,10.02
2023-02-19T16:16:25.441Z,10.31
2023-02-19T16:18:53.907Z,10.25
2023-02-19T16:21:24.464Z,10.01
2023-02-19T16:24:01.550Z,10.24
2023-02-19T16:26:28.372Z,10.08
2023-02-19T16:28:55.681Z,10.12
2023-02-19T16:31:23.841Z,9.91
2023-02-19T16:33:51.488Z,10.22
2023-02-19T16:36:21.149Z,10.15
2023-02-19T16:39:09.404Z,10.20
2023-02-19T16:41:48.186Z,10.26
2023-02-19T16:44:20.795Z,10.25
2023-02-19T16:47:27.858Z,10.25
2023-02-19T16:49:55.764Z,10.25
2023-02-19T16:52:22.514Z,10.47
2023-02-19T16:54:49.530Z,10.45
2023-02-19T16:57:16.299Z,10.35
2023-02-19T16:59:43.077Z,10.44
2023-02-19T17:02:17.070Z,10.80
2023-02-19T17:07:26.087Z,10.77
2023-02-19T17:09:52.999Z,10.95
2023-02-19T17:12:20.257Z,10.99
2023-02-19T17:14:47.188Z,10.74
2023-02-19T17:17:13.973Z,10.74
2023-02-19T17:19:40.744Z,11.11
2023-02-19T17:22:07.628Z,11.12
2023-02-19T17:24:34.493Z,10.78
2023-02-19T17:27:01.235Z,10.94
2023-02-19T17:29:30.659Z,10.72
2023-02-19T17:31:57.569Z,10.74
2023-02-19T17:34:24.256Z,10.87
2023-02-19T17:36:52.068Z,10.90
2023-02-19T17:39:19.465Z,11.13
2023-02-19T17:41:46.231Z,10.93
2023-02-19T17:44:13.002Z,10.64
2023-02-19T17:46:40.194Z,11.01
2023-02-19T17:49:07.659Z,10.59
2023-02-19T17:51:35.427Z,10.80
2023-02-19T17:54:02.214Z,10.71
2023-02-19T17:56:29.405Z,11.20
2023-02-19T17:58:57.640Z,11.31
2023-02-19T18:01:25.108Z,11.06
2023-02-19T18:03:52.171Z,11.20
2023-02-19T18:06:19.786Z,11.12
2023-02-19T18:08:48.303Z,11.32
2023-02-19T18:11:15.146Z,11.32
2023-02-19T18:13:41.953Z,11.23
2023-02-19T18:16:09.936Z,11.65
2023-02-19T18:18:38.119Z,11.16
2023-02-19T18:21:08.670Z,11.62
2023-02-19T18:23:35.775Z,11.32
2023-02-19T18:26:02.588Z,11.25
2023-02-19T18:28:29.567Z,11.41
2023-02-19T18:30:56.427Z,11.54
2023-02-19T18:33:23.229Z,11.44
2023-02-19T18:35:51.164Z,11.33
2023-02-19T18:38:17.968Z,11.74
2023-02-19T18:40:44.746Z,11.56
2023-02-19T18:43:11.465Z,11.61
2023-02-19T18:45:39.768Z,11.61
2023-02-19T18:48:06.684Z,11.41
2023-02-19T18:50:34.940Z,11.40
2023-02-19T18:53:01.914Z,11.70
2023-02-19T18:55:28.889Z,11.33
2023-02-19T18:57:55.612Z,11.37
2023-02-19T19:00:26.477Z,11.49
2023-02-19T19:02:58.464Z,11.55
2023-02-19T19:05:25.961Z,11.04
2023-02-19T19:07:57.721Z,11.43
2023-02-19T19:10:24.488Z,11.13
2023-02-19T19:12:51.715Z,10.91
2023-02-19T19:15:19.113Z,11.27
2023-02-19T19:17:47.113Z,10.98
2023-02-19T19:20:16.151Z,11.05
2023-02-19T19:22:42.910Z,11.21
2023-02-19T19:25:09.909Z,10.88
2023-02-19T19:27:36.681Z,10.99
2023-02-19T19:30:05.220Z,10.96
2023-02-19T19:32:32.007Z,10.87
2023-02-19T19:34:58.897Z,10.86
2023-02-19T19:37:28.316Z,10.89
2023-02-19T19:39:56.162Z,10.98
2023-02-19T19:42:23.408Z,10.92
2023-02-19T19:44:50.126Z,10.86
2023-02-19T19:47:16.864Z,10.65
2023-02-19T19:49:47.231Z,10.91
2023-02-19T19:52:14.653Z,10.56
2023-02-19T19:54:43.181Z,10.45
2023-02-19T19:57:10.457Z,10.66
2023-02-19T19:59:39.408Z,10.31
2023-02-19T20:02:07.633Z,10.68
2023-02-19T20:04:34.501Z,10.30
2023-02-19T20:07:01.895Z,10.51
2023-02-19T20:09:29.243Z,10.25
2023-02-19T20:11:56.816Z,10.48
2023-02-19T20:14:25.936Z,10.58
2023-02-19T20:16:55.030Z,10.39
2023-02-19T20:19:21.886Z,10.31
2023-02-19T20:21:51.150Z,9.94
2023-02-19T20:24:26.272Z,10.02
2023-02-19T20:26:58.892Z,9.78
2023-02-19T20:29:28.804Z,9.64
2023-02-19T20:31:59.919Z,9.92
2023-02-19T20:34:27.608Z,9.78
2023-02-19T20:36:54.456Z,9.57
2023-02-19T20:39:22.180Z,9.34
2023-02-19T20:41:50.972Z,9.72
2023-02-19T20:44:19.327Z,9.68
2023-02-19T20:46:48.892Z,9.53
2023-02-19T20:49:17.446Z,9.52
2023-02-19T20:51:45.159Z,9.66
2023-02-19T20:54:11.926Z,9.44
2023-02-19T20:56:53.228Z,9.57
2023-02-19T20:59:22.173Z,9.35
2023-02-19T21:01:49.088Z,9.36
2023-02-19T21:04:16.124Z,9.36
2023-02-19T21:06:42.778Z,9.38
2023-02-19T21:09:09.468Z,9.25
2023-02-19T21:11:36.279Z,9.53
2023-02-19T21:14:03.642Z,9.42
2023-02-19T21:16:32.122Z,9.26
2023-02-19T21:18:59.535Z,9.46
2023-02-19T21:21:26.649Z,9.35
2023-02-19T21:23:58.328Z,9.20
2023-02-19T21:26:32.299Z,9.31
2023-02-19T21:28:59.153Z,9.50
2023-02-19T21:31:36.576Z,9.29
2023-02-19T21:34:05.081Z,9.44
2023-02-19T21:36:31.797Z,8.92
2023-02-19T21:38:58.493Z,9.24
2023-02-19T21:41:26.887Z,9.46
2023-02-19T21:43:55.593Z,9.32
2023-02-19T21:46:23.589Z,9.69
2023-02-19T21:48:55.069Z,9.45
2023-02-19T21:51:28.222Z,9.62
2023-02-19T21:53:54.870Z,9.41
2023-02-19T21:56:26.665Z,9.36
2023-02-19T21:58:53.477Z,9.33
2023-02-19T22:01:40.536Z,9.54
2023-02-19T22:04:09.283Z,9.43
2023-02-19T22:06:36.176Z,9.41
2023-02-19T22:09:03.927Z,9.61
2023-02-19T22:11:30.626Z,9.60
2023-02-19T22:13:57.680Z,9.50
2023-02-19T22:16:24.479Z,9.50
2023-02-19T22:18:53.567Z,9.47
2023-02-19T22:21:21.785Z,9.44
2023-02-19T22:23:50.586Z,9.48
2023-02-19T22:26:32.447Z,9.39
2023-02-19T22:28:59.677Z,9.69
2023-02-19T22:31:27.670Z,9.61
2023-02-19T22:33:56.330Z,9.65
2023-02-19T22:36:25.668Z,9.40
2023-02-19T22:38:53.011Z,9.74
2023-02-19T22:41:21.509Z,9.60
2023-02-19T22:43:49.396Z,9.76
2023-02-19T22:46:19.491Z,9.68
2023-02-19T22:48:46.492Z,9.51
2023-02-19T22:51:15.620Z,9.45
2023-02-19T22:53:46.568Z,9.74
2023-02-19T22:56:14.718Z,9.55
2023-02-19T22:58:42.140Z,9.38
2023-02-19T23:01:16.894Z,9.72
2023-02-19T23:03:52.822Z,9.59
2023-02-19T23:06:25.666Z,9.55
2023-02-19T23:08:53.704Z,9.67
2023-02-19T23:11:23.674Z,9.62
2023-02-19T23:13:51.072Z,9.59
2023-02-19T23:16:18.253Z,9.30
2023-02-19T23:18:45.153Z,9.37
2023-02-19T23:21:12.013Z,9.09
2023-02-19T23:23:44.218Z,9.09
2023-02-19T23:26:13.028Z,9.28
2023-02-19T23:28:41.215Z,9.58
2023-02-19T23:31:08.247Z,9.26
2023-02-19T23:33:35.538Z,9.29
2023-02-19T23:36:02.297Z,9.49
2023-02-19T23:38:29.009Z,9.52
2023-02-19T23:40:55.719Z,9.42
2023-02-19T23:43:22.404Z,9.29
2023-02-19T23:45:50.585Z,9.63
2023-02-19T23:48:17.324Z,9.31
2023-02-19T23:50:44.091Z,9.35
2023-02-19T23:53:10.785Z,9.48
2023-02-19T23:55:37.492Z,9.38
2023-02-19T23:58:04.208Z,9.43
